Time;durP1;ratioP1;P1;durP2;ratioP2;P2;SDS_P1;SDS_P2;PMS_P1;PMS_P2;Temp;Humidity;BMP_temperature;BMP_pressure;BME280_temperature;BME280_humidity;BME280_pressure;Samples;Min_cycle;Max_cycle;Signal;HPM_P1;HPM_P2
2021/04/29 00:01:14;;;;;;;4.20;3.80;;;12.90;99.90;;;;;;5093980;28;20225;-67
2021/04/29 00:03:40;;;;;;;4.43;4.03;;;12.90;99.90;;;;;;5094487;28;20468;-67
2021/04/29 00:06:05;;;;;;;4.80;4.13;;;12.80;99.90;;;;;;5094498;28;20936;-67
2021/04/29 00:08:33;;;;;;;8.17;4.23;;;12.70;99.90;;;;;;5094449;28;20246;-67
2021/04/29 00:10:59;;;;;;;5.63;5.13;;;12.70;99.90;;;;;;5094658;28;20475;-67
2021/04/29 00:13:25;;;;;;;4.30;3.90;;;12.70;99.90;;;;;;5094701;28;20408;-67
2021/04/29 00:15:51;;;;;;;7.67;4.70;;;12.60;99.90;;;;;;5094331;28;20386;-67
2021/04/29 00:18:17;;;;;;;5.97;4.57;;;12.60;99.90;;;;;;5093677;28;20178;-67
2021/04/29 00:20:44;;;;;;;4.40;4.00;;;12.50;99.90;;;;;;5094003;28;20446;-67
2021/04/29 00:23:10;;;;;;;4.53;4.13;;;12.50;99.90;;;;;;5093511;28;20412;-67
2021/04/29 00:25:35;;;;;;;5.00;4.50;;;12.40;99.90;;;;;;5094531;28;20936;-67
2021/04/29 00:28:01;;;;;;;4.23;3.83;;;12.40;99.90;;;;;;5094106;28;20385;-67
2021/04/29 00:30:27;;;;;;;6.33;3.83;;;12.30;99.90;;;;;;5094361;28;20626;-67
2021/04/29 00:32:52;;;;;;;4.40;4.00;;;12.30;99.90;;;;;;5094100;28;20159;-67
2021/04/29 00:35:18;;;;;;;4.73;4.23;;;12.30;99.90;;;;;;5093090;28;20549;-67
2021/04/29 00:37:43;;;;;;;5.80;4.50;;;12.20;99.90;;;;;;5093827;28;20537;-67
2021/04/29 00:40:10;;;;;;;5.43;4.10;;;12.20;99.90;;;;;;5093827;28;20563;-67
2021/04/29 00:42:38;;;;;;;5.00;4.40;;;12.20;99.90;;;;;;5093847;28;20651;-67
2021/04/29 00:45:07;;;;;;;4.60;3.90;;;12.10;99.90;;;;;;5093944;28;20406;-67
2021/04/29 00:47:33;;;;;;;9.50;4.40;;;12.10;99.90;;;;;;5093737;28;20399;-67
2021/04/29 00:49:59;;;;;;;4.30;3.90;;;12.10;99.90;;;;;;5093695;28;20398;-67
2021/04/29 00:52:25;;;;;;;4.27;3.87;;;12.00;99.90;;;;;;5092888;28;20589;-67
2021/04/29 00:54:51;;;;;;;4.67;4.27;;;12.00;99.90;;;;;;5093626;28;20797;-67
2021/04/29 00:57:16;;;;;;;13.33;6.50;;;12.00;99.90;;;;;;5093657;28;20162;-67
2021/04/29 00:59:42;;;;;;;4.77;4.37;;;11.90;99.90;;;;;;5093509;28;21031;-67
2021/04/29 01:02:08;;;;;;;3.70;3.40;;;11.90;99.90;;;;;;5093527;28;20611;-67
2021/04/29 01:07:30;;;;;;;4.57;4.17;;;11.80;99.90;;;;;;5110968;27;20862;-67
2021/04/29 01:12:40;;;;;;;4.50;4.00;;;11.80;99.90;;;;;;5131199;27;20571;-67
2021/04/29 01:15:08;;;;;;;4.37;3.97;;;11.70;99.90;;;;;;5131260;28;20390;-67
2021/04/29 01:17:36;;;;;;;4.93;4.00;;;11.70;99.90;;;;;;5131076;28;20954;-67
2021/04/29 01:20:08;;;;;;;4.03;3.63;;;11.60;99.90;;;;;;5131180;28;20474;-67
2021/04/29 01:22:39;;;;;;;7.00;4.40;;;11.60;99.90;;;;;;5131226;28;20427;-67
2021/04/29 01:25:09;;;;;;;7.73;3.97;;;11.60;99.90;;;;;;5130434;28;20904;-67
2021/04/29 01:27:35;;;;;;;5.43;4.03;;;11.60;99.90;;;;;;5131091;28;20814;-67
2021/04/29 01:30:05;;;;;;;4.43;3.67;;;11.60;99.90;;;;;;5131163;28;20449;-67
2021/04/29 01:32:31;;;;;;;4.33;3.90;;;11.60;99.90;;;;;;5131010;28;20487;-67
2021/04/29 01:34:56;;;;;;;4.80;4.27;;;11.60;99.90;;;;;;5130782;27;20847;-67
2021/04/29 01:37:22;;;;;;;5.57;4.00;;;11.60;99.90;;;;;;5131044;28;20189;-67
2021/04/29 01:39:48;;;;;;;4.47;3.93;;;11.60;99.90;;;;;;5131014;28;20233;-67
2021/04/29 01:42:14;;;;;;;3.80;3.20;;;11.60;99.90;;;;;;5129991;28;20394;-67
2021/04/29 01:44:40;;;;;;;4.63;4.17;;;11.60;99.90;;;;;;5130734;28;20159;-67
2021/04/29 01:47:06;;;;;;;4.73;3.73;;;11.60;99.90;;;;;;5130684;28;20477;-67
2021/04/29 01:49:32;;;;;;;5.93;4.30;;;11.60;99.90;;;;;;5130645;28;20308;-67
2021/04/29 01:51:58;;;;;;;3.87;3.50;;;11.60;99.90;;;;;;5130445;28;20467;-67
2021/04/29 01:54:24;;;;;;;4.70;4.30;;;11.60;99.90;;;;;;5130639;28;20379;-67
2021/04/29 01:56:50;;;;;;;4.60;3.53;;;11.70;99.90;;;;;;5130379;28;20254;-67
2021/04/29 01:59:16;;;;;;;5.60;3.67;;;11.70;99.90;;;;;;5129512;28;20936;-67
2021/04/29 02:01:43;;;;;;;5.07;4.57;;;11.70;99.90;;;;;;5130423;28;20397;-67
2021/04/29 02:04:10;;;;;;;4.97;3.57;;;11.80;99.90;;;;;;5130293;27;20416;-67
2021/04/29 02:06:37;;;;;;;4.60;4.07;;;11.80;99.90;;;;;;5130417;27;20477;-67
2021/04/29 02:09:04;;;;;;;5.17;4.00;;;11.80;99.90;;;;;;5130188;28;20394;-67
2021/04/29 02:11:33;;;;;;;4.17;3.77;;;11.80;99.90;;;;;;5130078;28;20530;-67
2021/04/29 02:14:00;;;;;;;4.43;4.03;;;11.90;99.90;;;;;;5130239;27;20811;-67
2021/04/29 02:16:47;;;;;;;4.53;3.77;;;11.90;99.90;;;;;;5129267;27;20424;-67
2021/04/29 02:19:14;;;;;;;4.33;3.67;;;11.90;99.90;;;;;;5129033;28;20412;-67
2021/04/29 02:21:43;;;;;;;4.23;3.57;;;12.00;99.90;;;;;;5129844;27;20397;-67
2021/04/29 02:24:10;;;;;;;4.17;3.70;;;12.00;99.90;;;;;;5096900;28;20416;-67
2021/04/29 02:26:36;;;;;;;4.40;3.80;;;12.00;99.90;;;;;;5095836;28;20412;-67
2021/04/29 02:29:06;;;;;;;4.90;3.80;;;12.00;99.90;;;;;;5096335;28;20761;-67
2021/04/29 02:31:34;;;;;;;6.83;3.83;;;12.00;99.90;;;;;;5095727;28;20551;-67
2021/04/29 02:34:01;;;;;;;4.53;4.13;;;12.00;99.90;;;;;;5096248;28;20406;-67
2021/04/29 02:36:26;;;;;;;4.90;4.23;;;12.00;99.90;;;;;;5096122;28;20401;-69
2021/04/29 02:38:55;;;;;;;5.30;4.50;;;12.00;99.90;;;;;;5096044;28;20381;-69
2021/04/29 02:41:21;;;;;;;4.33;3.93;;;12.00;99.90;;;;;;5095507;28;20155;-69
2021/04/29 02:43:46;;;;;;;5.23;4.43;;;12.10;99.90;;;;;;5095430;28;20506;-69
2021/04/29 02:46:12;;;;;;;6.13;4.93;;;12.10;99.90;;;;;;5095292;28;20842;-69
2021/04/29 02:48:41;;;;;;;5.30;4.67;;;12.10;99.90;;;;;;5095397;28;20584;-69
2021/04/29 02:51:07;;;;;;;5.97;5.37;;;12.10;99.90;;;;;;5095992;28;20455;-69
2021/04/29 02:53:34;;;;;;;7.33;4.07;;;12.10;99.90;;;;;;5095454;28;20419;-69
2021/04/29 02:56:00;;;;;;;4.47;3.70;;;12.00;99.90;;;;;;5095308;28;20397;-69
2021/04/29 02:58:25;;;;;;;5.33;4.60;;;12.10;99.90;;;;;;5095318;28;20402;-69
2021/04/29 03:00:53;;;;;;;4.73;4.27;;;12.10;99.90;;;;;;5095202;28;20151;-69
2021/04/29 03:03:18;;;;;;;4.83;4.30;;;12.00;99.90;;;;;;5095339;28;20245;-69
2021/04/29 03:05:44;;;;;;;6.13;4.30;;;12.10;99.90;;;;;;5095216;28;20924;-69
2021/04/29 03:08:10;;;;;;;5.10;4.67;;;12.10;99.90;;;;;;5096230;28;20177;-69
2021/04/29 03:10:36;;;;;;;7.63;4.23;;;12.00;99.90;;;;;;5094785;28;20205;-69
2021/04/29 03:13:02;;;;;;;4.60;4.30;;;12.10;99.90;;;;;;5095011;28;20165;-69
2021/04/29 03:15:27;;;;;;;5.10;4.70;;;12.10;99.90;;;;;;5094863;28;20442;-69
2021/04/29 03:17:53;;;;;;;6.10;4.67;;;12.10;99.90;;;;;;5094869;28;20871;-69
2021/04/29 03:20:19;;;;;;;6.80;4.60;;;12.10;99.90;;;;;;5094905;28;20151;-69
2021/04/29 03:22:45;;;;;;;5.90;5.10;;;12.10;99.90;;;;;;5095347;28;20243;-69
2021/04/29 03:25:11;;;;;;;5.70;4.23;;;12.10;99.90;;;;;;5104409;28;20421;-69
2021/04/29 03:27:38;;;;;;;7.43;4.53;;;12.10;99.90;;;;;;5115068;28;20400;-69
2021/04/29 03:30:04;;;;;;;8.53;5.20;;;12.00;99.90;;;;;;5115064;28;20448;-69
2021/04/29 03:32:30;;;;;;;5.80;5.20;;;12.00;99.90;;;;;;5114675;27;20444;-69
2021/04/29 03:34:55;;;;;;;5.73;5.20;;;11.90;99.90;;;;;;5113926;28;20513;-69
2021/04/29 03:37:21;;;;;;;6.67;5.90;;;11.90;99.90;;;;;;5115366;28;20656;-69
2021/04/29 03:39:46;;;;;;;9.33;6.40;;;11.90;99.90;;;;;;5114938;28;20236;-69
2021/04/29 03:42:13;;;;;;;5.80;5.30;;;11.80;99.90;;;;;;5113891;28;20184;-69
2021/04/29 03:44:39;;;;;;;11.50;5.67;;;11.80;99.90;;;;;;5114725;28;20157;-69
2021/04/29 03:47:05;;;;;;;7.50;5.33;;;11.70;99.90;;;;;;5114657;28;20897;-69
2021/04/29 03:49:31;;;;;;;7.87;6.57;;;11.70;99.90;;;;;;5114666;28;20451;-69
2021/04/29 03:51:57;;;;;;;6.67;6.07;;;11.70;99.90;;;;;;5109396;28;20442;-69
2021/04/29 03:54:23;;;;;;;6.53;5.93;;;11.70;99.90;;;;;;5106381;28;20457;-69
2021/04/29 03:56:50;;;;;;;6.50;5.90;;;11.70;99.90;;;;;;5099512;28;20421;-69
2021/04/29 03:59:16;;;;;;;7.63;6.83;;;11.70;99.90;;;;;;5105632;28;20441;-69
2021/04/29 04:01:41;;;;;;;9.00;7.53;;;11.70;99.90;;;;;;5104634;28;20417;-69
2021/04/29 04:04:07;;;;;;;9.43;6.73;;;11.60;99.90;;;;;;5097077;28;20213;-69
2021/04/29 04:06:32;;;;;;;9.07;7.87;;;11.60;99.90;;;;;;5095934;28;20182;-69
2021/04/29 04:08:58;;;;;;;8.30;6.93;;;11.60;99.90;;;;;;5102004;28;20178;-69
2021/04/29 04:11:23;;;;;;;8.40;6.90;;;11.60;99.90;;;;;;5100848;28;20218;-69
2021/04/29 04:13:49;;;;;;;7.63;6.93;;;11.60;99.90;;;;;;5094539;28;20224;-69
2021/04/29 04:16:16;;;;;;;9.37;8.00;;;11.60;99.90;;;;;;5105650;28;20172;-69
2021/04/29 04:18:42;;;;;;;10.17;8.20;;;11.60;99.90;;;;;;5102837;28;20177;-69
2021/04/29 04:21:08;;;;;;;8.73;7.13;;;11.60;99.90;;;;;;5096406;28;20426;-69
2021/04/29 04:23:33;;;;;;;8.33;7.50;;;11.70;99.90;;;;;;5093426;28;20407;-69
2021/04/29 04:26:00;;;;;;;10.50;7.70;;;11.70;99.90;;;;;;5093706;28;20165;-69
2021/04/29 04:28:27;;;;;;;11.20;7.70;;;11.70;99.90;;;;;;5113944;28;20540;-69
2021/04/29 04:30:53;;;;;;;11.00;8.17;;;11.70;99.90;;;;;;5115154;28;20504;-69
2021/04/29 04:33:18;;;;;;;10.93;8.23;;;11.80;99.90;;;;;;5113244;28;20401;-69
2021/04/29 04:35:44;;;;;;;13.33;8.90;;;11.80;99.90;;;;;;5094673;28;20528;-69
2021/04/29 04:38:10;;;;;;;13.67;9.20;;;11.80;99.90;;;;;;5093337;28;20153;-69
2021/04/29 04:40:35;;;;;;;11.90;10.47;;;11.80;99.90;;;;;;5093355;28;20164;-69
2021/04/29 04:43:01;;;;;;;14.50;10.53;;;11.80;99.90;;;;;;5093576;28;20622;-69
2021/04/29 04:45:27;;;;;;;15.17;10.40;;;11.80;99.90;;;;;;5093060;28;20158;-69
2021/04/29 04:47:52;;;;;;;15.47;10.37;;;11.80;99.90;;;;;;5093787;28;20180;-69
2021/04/29 04:50:18;;;;;;;13.40;12.00;;;11.70;99.90;;;;;;5094226;28;20641;-69
2021/04/29 04:52:43;;;;;;;14.13;11.37;;;11.70;99.90;;;;;;5093093;28;20183;-69
2021/04/29 04:55:09;;;;;;;17.70;11.70;;;11.70;99.90;;;;;;5092940;28;20165;-69
2021/04/29 04:57:35;;;;;;;14.33;12.57;;;11.70;99.90;;;;;;5093132;28;20620;-69
2021/04/29 05:00:01;;;;;;;13.83;12.33;;;11.70;99.90;;;;;;5093221;28;20195;-69
2021/04/29 05:02:27;;;;;;;14.77;12.40;;;11.80;99.90;;;;;;5093619;28;20475;-69
2021/04/29 05:04:53;;;;;;;16.20;13.27;;;11.70;99.90;;;;;;5093560;28;20184;-69
2021/04/29 05:07:18;;;;;;;14.10;12.70;;;11.80;99.90;;;;;;5093672;28;20434;-69
2021/04/29 05:09:44;;;;;;;18.97;13.83;;;11.80;99.90;;;;;;5093205;28;20214;-69
2021/04/29 05:12:11;;;;;;;18.80;13.97;;;11.80;99.90;;;;;;5092996;28;20204;-69
2021/04/29 05:14:36;;;;;;;20.07;15.20;;;11.80;99.90;;;;;;5093167;28;20416;-69
2021/04/29 05:17:02;;;;;;;16.97;15.20;;;11.80;99.90;;;;;;5093806;28;20394;-69
2021/04/29 05:19:28;;;;;;;17.23;14.73;;;11.80;99.90;;;;;;5093368;28;20154;-69
2021/04/29 05:21:54;;;;;;;18.23;15.57;;;11.80;99.90;;;;;;5093011;28;20482;-69
2021/04/29 05:24:20;;;;;;;19.13;15.93;;;11.90;99.90;;;;;;5103850;28;20176;-69
2021/04/29 05:26:46;;;;;;;19.73;16.43;;;11.90;99.90;;;;;;5102732;28;20291;-69
2021/04/29 05:29:11;;;;;;;21.17;16.70;;;11.90;99.90;;;;;;5111774;28;20692;-69
2021/04/29 05:31:38;;;;;;;30.43;18.03;;;11.90;99.90;;;;;;5099448;28;20558;-70
2021/04/29 05:34:04;;;;;;;24.33;17.77;;;12.00;99.90;;;;;;5100940;28;20177;-69
2021/04/29 05:36:30;;;;;;;20.93;17.53;;;12.00;99.90;;;;;;5095591;28;20407;-69
2021/04/29 05:38:56;;;;;;;18.80;16.90;;;12.00;99.90;;;;;;5090811;28;20431;-69
2021/04/29 05:41:22;;;;;;;24.97;19.57;;;12.00;99.90;;;;;;5091433;28;21155;-69
2021/04/29 05:43:47;;;;;;;22.70;19.60;;;12.10;99.90;;;;;;5090841;28;20175;-69
2021/04/29 05:46:14;;;;;;;25.77;21.53;;;12.10;99.90;;;;;;5098060;28;20229;-69
2021/04/29 05:48:39;;;;;;;25.33;21.00;;;12.10;99.90;;;;;;5103928;28;20225;-69
2021/04/29 05:51:05;;;;;;;26.67;21.23;;;12.00;99.90;;;;;;5102236;28;20458;-69
2021/04/29 05:53:31;;;;;;;27.43;23.00;;;12.00;99.90;;;;;;5098118;28;20256;-69
2021/04/29 05:55:57;;;;;;;26.70;23.80;;;12.00;99.90;;;;;;5095363;28;20181;-69
2021/04/29 05:58:23;;;;;;;25.63;20.60;;;11.90;99.90;;;;;;5097598;27;20174;-69
2021/04/29 06:00:48;;;;;;;29.37;22.90;;;11.90;99.90;;;;;;5105767;28;20423;-70
2021/04/29 06:03:14;;;;;;;31.40;23.80;;;11.90;99.90;;;;;;5097447;28;20162;-69
2021/04/29 06:05:40;;;;;;;27.80;23.63;;;11.80;99.90;;;;;;5116990;28;20171;-69
2021/04/29 06:08:06;;;;;;;30.93;24.30;;;11.80;99.90;;;;;;5116722;28;20399;-69
2021/04/29 06:10:33;;;;;;;31.53;24.30;;;11.70;99.90;;;;;;5109910;27;20939;-69
2021/04/29 06:12:59;;;;;;;29.40;26.20;;;11.70;99.90;;;;;;5096333;28;20402;-69
2021/04/29 06:15:25;;;;;;;29.83;25.43;;;11.80;99.90;;;;;;5111620;28;20416;-70
2021/04/29 06:17:51;;;;;;;28.90;24.90;;;11.80;99.90;;;;;;5096370;28;20613;-69
2021/04/29 06:20:17;;;;;;;30.77;26.30;;;11.80;99.90;;;;;;5096139;28;20394;-69
2021/04/29 06:22:43;;;;;;;29.57;26.30;;;11.90;99.90;;;;;;5100619;28;20183;-69
2021/04/29 06:25:09;;;;;;;28.43;25.40;;;12.00;99.90;;;;;;5100943;28;20416;-69
2021/04/29 06:27:36;;;;;;;28.90;25.30;;;12.10;99.90;;;;;;5111441;28;20209;-69
2021/04/29 06:30:02;;;;;;;31.43;27.00;;;12.30;99.90;;;;;;5109650;28;20420;-69
2021/04/29 06:32:28;;;;;;;29.87;26.70;;;12.40;99.90;;;;;;5097691;28;20483;-69
2021/04/29 06:34:54;;;;;;;33.07;28.70;;;12.50;99.90;;;;;;5099501;28;20815;-69
2021/04/29 06:37:19;;;;;;;33.83;29.97;;;12.60;99.90;;;;;;5098927;28;20175;-69
2021/04/29 06:39:46;;;;;;;35.57;30.17;;;12.70;99.90;;;;;;5099602;28;20166;-69
2021/04/29 06:42:12;;;;;;;38.00;31.80;;;12.70;99.90;;;;;;5101242;28;20178;-69
2021/04/29 06:44:38;;;;;;;36.07;29.60;;;12.80;99.90;;;;;;5100982;28;20418;-70
2021/04/29 06:47:03;;;;;;;35.47;29.13;;;12.90;99.90;;;;;;5095563;28;20917;-69
2021/04/29 06:49:29;;;;;;;35.30;29.70;;;13.00;99.90;;;;;;5093981;28;20178;-70
2021/04/29 06:51:54;;;;;;;34.93;28.00;;;13.00;99.90;;;;;;5093458;28;20191;-69
2021/04/29 06:54:20;;;;;;;31.90;28.37;;;13.10;99.90;;;;;;5093488;28;20202;-70
2021/04/29 06:56:46;;;;;;;32.73;28.93;;;13.20;99.90;;;;;;5096194;28;20177;-69
2021/04/29 06:59:12;;;;;;;39.30;29.40;;;13.40;99.90;;;;;;5106648;28;20446;-70
2021/04/29 07:01:37;;;;;;;32.63;29.10;;;13.60;99.90;;;;;;5112347;28;20163;-70
2021/04/29 07:04:03;;;;;;;33.30;27.90;;;13.70;99.90;;;;;;5111992;28;20178;-70
2021/04/29 07:06:29;;;;;;;34.10;29.60;;;13.90;99.90;;;;;;5107548;27;20209;-69
2021/04/29 07:08:56;;;;;;;37.73;30.47;;;13.90;99.90;;;;;;5100024;28;20420;-69
2021/04/29 07:11:22;;;;;;;35.43;29.20;;;14.00;99.90;;;;;;5107815;28;20202;-70
2021/04/29 07:13:47;;;;;;;33.60;30.10;;;14.20;99.90;;;;;;5105995;28;20420;-70
2021/04/29 07:16:13;;;;;;;32.13;28.23;;;14.30;99.90;;;;;;5109696;28;20481;-69
2021/04/29 07:18:39;;;;;;;33.23;28.03;;;14.40;99.90;;;;;;5106692;28;20306;-70
2021/04/29 07:21:04;;;;;;;35.40;29.30;;;14.40;99.90;;;;;;5110987;28;20564;-70
2021/04/29 07:23:30;;;;;;;30.20;24.43;;;14.60;99.90;;;;;;5102224;28;20636;-70
2021/04/29 07:25:56;;;;;;;29.73;26.17;;;14.80;99.90;;;;;;5099728;27;20275;-70
2021/04/29 07:28:22;;;;;;;27.17;24.13;;;15.00;99.00;;;;;;5106787;27;20458;-69
2021/04/29 07:30:49;;;;;;;30.50;27.30;;;15.10;98.20;;;;;;5103733;28;20196;-70
2021/04/29 07:33:16;;;;;;;33.40;28.73;;;15.10;97.60;;;;;;5094256;28;20405;-70
2021/04/29 07:35:42;;;;;;;34.43;28.70;;;15.10;96.80;;;;;;5094170;28;20393;-70
2021/04/29 07:38:08;;;;;;;37.50;31.43;;;15.20;96.70;;;;;;5109482;28;20477;-69
2021/04/29 07:40:33;;;;;;;46.00;34.80;;;15.20;96.40;;;;;;5113775;28;20432;-70
2021/04/29 07:42:59;;;;;;;39.23;35.00;;;15.30;96.20;;;;;;5115870;28;20242;-70
2021/04/29 07:45:26;;;;;;;41.50;34.50;;;15.20;96.40;;;;;;5104321;27;20267;-70
2021/04/29 07:47:52;;;;;;;44.63;37.03;;;15.20;96.70;;;;;;5095986;28;20881;-70
2021/04/29 07:50:18;;;;;;;44.83;37.53;;;15.10;97.20;;;;;;5100744;28;20429;-70
2021/04/29 07:52:44;;;;;;;42.60;35.60;;;15.20;97.70;;;;;;5097849;28;20232;-70
2021/04/29 07:55:11;;;;;;;41.17;35.70;;;15.40;97.50;;;;;;5096986;28;20179;-70
2021/04/29 07:57:37;;;;;;;46.30;41.30;;;15.60;97.00;;;;;;5093693;28;20455;-69
2021/04/29 08:00:05;;;;;;;48.43;38.90;;;15.70;96.40;;;;;;5099556;28;20442;-70
2021/04/29 08:02:31;;;;;;;43.07;38.40;;;15.80;96.30;;;;;;5103737;28;20515;-70
2021/04/29 08:04:57;;;;;;;43.17;38.20;;;15.80;96.10;;;;;;5097778;28;20447;-70
2021/04/29 08:07:23;;;;;;;42.50;37.17;;;15.70;96.00;;;;;;5094356;28;20200;-70
2021/04/29 08:09:49;;;;;;;45.93;39.40;;;15.70;96.30;;;;;;5099293;28;20278;-70
2021/04/29 08:12:15;;;;;;;47.23;40.20;;;15.70;96.30;;;;;;5095577;28;20542;-70
2021/04/29 08:14:41;;;;;;;44.43;39.73;;;15.80;95.90;;;;;;5093208;28;20502;-70
2021/04/29 08:17:06;;;;;;;44.27;39.07;;;15.80;95.20;;;;;;5097746;28;20204;-69
2021/04/29 08:19:32;;;;;;;52.43;43.97;;;15.80;95.20;;;;;;5096223;28;20737;-69
2021/04/29 08:21:57;;;;;;;50.10;42.10;;;15.70;94.80;;;;;;5090526;28;20174;-69
2021/04/29 08:24:23;;;;;;;52.07;43.30;;;15.60;95.20;;;;;;5095360;28;20260;-69
2021/04/29 08:26:48;;;;;;;46.03;41.00;;;15.60;94.80;;;;;;5091599;28;20513;-69
2021/04/29 08:29:14;;;;;;;50.37;42.40;;;15.50;94.70;;;;;;5091499;28;20526;-69
2021/04/29 08:31:40;;;;;;;43.80;37.87;;;15.40;94.90;;;;;;5091900;28;20196;-69
2021/04/29 08:34:05;;;;;;;46.23;40.30;;;15.70;94.40;;;;;;5098152;28;20165;-69
2021/04/29 08:36:32;;;;;;;47.33;41.50;;;16.00;92.30;;;;;;5093656;27;20202;-69
2021/04/29 08:38:59;;;;;;;44.87;38.67;;;16.10;92.00;;;;;;5098617;28;20638;-69
2021/04/29 08:41:25;;;;;;;44.30;38.40;;;16.00;92.10;;;;;;5110227;27;20423;-69
2021/04/29 08:43:51;;;;;;;46.40;40.23;;;15.80;92.00;;;;;;5111521;27;20762;-69
2021/04/29 08:46:16;;;;;;;44.00;37.93;;;15.70;92.10;;;;;;5111442;28;20171;-69
2021/04/29 08:48:42;;;;;;;43.43;38.80;;;15.70;92.20;;;;;;5110875;28;20193;-69
2021/04/29 08:51:09;;;;;;;44.57;39.80;;;15.70;91.90;;;;;;5104454;28;20189;-69
2021/04/29 08:53:36;;;;;;;41.80;35.73;;;15.60;91.30;;;;;;5102826;28;20419;-69
2021/04/29 08:56:01;;;;;;;46.60;38.90;;;15.60;91.60;;;;;;5111134;28;20517;-69
2021/04/29 08:58:27;;;;;;;41.50;37.00;;;15.60;91.60;;;;;;5096792;28;20525;-69
2021/04/29 09:01:09;;;;;;;38.47;33.73;;;15.60;91.30;;;;;;5097676;28;20180;-69
2021/04/29 09:03:34;;;;;;;37.60;32.13;;;15.70;90.60;;;;;;5108167;28;20200;-69
2021/04/29 09:06:02;;;;;;;37.43;32.70;;;15.90;88.00;;;;;;5093779;28;20427;-69
2021/04/29 09:08:29;;;;;;;34.43;30.73;;;15.90;86.20;;;;;;5093461;28;20663;-69
2021/04/29 09:11:09;;;;;;;35.10;30.43;;;15.80;83.40;;;;;;5097280;28;20562;-69
2021/04/29 09:13:35;;;;;;;31.80;27.73;;;15.70;83.00;;;;;;5105861;28;20412;-69
2021/04/29 09:16:12;;;;;;;33.83;28.33;;;15.90;82.00;;;;;;5113307;28;20376;-69
2021/04/29 09:18:41;;;;;;;31.67;27.17;;;16.30;78.10;;;;;;5113297;28;20384;-69
2021/04/29 09:21:13;;;;;;;34.73;27.43;;;16.40;75.20;;;;;;5106485;27;20420;-69
2021/04/29 09:23:42;;;;;;;29.23;26.07;;;16.60;74.20;;;;;;5110074;28;20769;-70
2021/04/29 09:26:12;;;;;;;29.27;26.13;;;16.90;74.50;;;;;;5093053;28;20447;-69
2021/04/29 09:28:44;;;;;;;29.37;26.27;;;17.40;71.50;;;;;;5092840;28;20442;-69
2021/04/29 09:31:12;;;;;;;28.27;24.87;;;17.90;68.10;;;;;;5092986;28;20991;-69
2021/04/29 09:33:40;;;;;;;25.10;22.50;;;18.30;65.50;;;;;;5095340;28;20480;-69
2021/04/29 09:36:08;;;;;;;26.27;23.33;;;19.00;61.60;;;;;;5098256;28;20512;-70
2021/04/29 09:38:38;;;;;;;24.83;21.63;;;19.70;58.90;;;;;;5098264;28;20412;-70
2021/04/29 09:41:06;;;;;;;25.23;22.53;;;20.30;57.60;;;;;;5104917;28;20851;-69
2021/04/29 09:43:32;;;;;;;20.83;18.73;;;20.80;54.00;;;;;;5100341;28;20447;-70
2021/04/29 09:45:59;;;;;;;24.43;21.83;;;21.20;51.60;;;;;;5105236;28;20463;-70
2021/04/29 09:48:36;;;;;;;25.90;23.20;;;21.30;51.30;;;;;;5104293;28;20174;-70
2021/04/29 09:51:01;;;;;;;26.93;21.20;;;21.50;50.80;;;;;;5102901;28;20454;-70
2021/04/29 09:53:38;;;;;;;25.87;22.27;;;21.20;50.40;;;;;;5104245;28;20427;-69
2021/04/29 09:56:09;;;;;;;25.63;22.63;;;21.20;50.50;;;;;;5104414;28;20166;-70
2021/04/29 09:58:36;;;;;;;21.97;19.67;;;21.00;50.70;;;;;;5095869;27;20436;-69
2021/04/29 10:01:04;;;;;;;28.27;22.03;;;20.80;51.10;;;;;;5105700;28;20898;-69
2021/04/29 10:03:31;;;;;;;23.47;17.43;;;20.70;50.50;;;;;;5105385;28;20448;-70
2021/04/29 10:05:57;;;;;;;20.37;17.50;;;20.50;50.20;;;;;;5096342;28;20500;-70
2021/04/29 10:08:25;;;;;;;21.40;19.30;;;20.30;49.10;;;;;;5100452;28;20564;-70
2021/04/29 10:10:55;;;;;;;23.07;18.50;;;20.20;49.20;;;;;;5094308;28;20219;-69
2021/04/29 10:13:27;;;;;;;19.60;17.60;;;20.00;49.40;;;;;;5096319;28;20413;-69
2021/04/29 10:15:53;;;;;;;20.60;18.50;;;19.90;49.00;;;;;;5093501;28;20441;-69
2021/04/29 10:18:19;;;;;;;18.80;16.90;;;19.80;49.40;;;;;;5104510;28;20519;-69
2021/04/29 10:20:48;;;;;;;21.60;18.13;;;19.60;50.20;;;;;;5092912;28;20170;-70
2021/04/29 10:23:17;;;;;;;22.67;20.30;;;19.50;50.30;;;;;;5091046;28;20737;-70
2021/04/29 10:25:49;;;;;;;22.00;18.67;;;19.50;50.90;;;;;;5097699;28;20932;-69
2021/04/29 10:28:15;;;;;;;18.60;16.67;;;19.40;51.10;;;;;;5097776;28;20423;-69
2021/04/29 10:30:41;;;;;;;23.90;20.80;;;19.30;51.80;;;;;;5104226;28;20421;-69
2021/04/29 10:33:16;;;;;;;24.07;19.73;;;19.40;51.60;;;;;;5095820;27;20432;-69
2021/04/29 10:38:36;;;;;;;22.70;20.50;;;19.50;51.40;;;;;;5078434;27;20568;-70
2021/04/29 10:41:15;;;;;;;24.37;21.97;;;19.50;52.30;;;;;;5074289;28;20492;-70
2021/04/29 10:43:41;;;;;;;23.43;20.23;;;19.40;52.40;;;;;;5082899;28;20889;-70
2021/04/29 10:46:07;;;;;;;20.27;18.17;;;19.30;51.60;;;;;;5075132;28;20408;-70
2021/04/29 10:48:35;;;;;;;21.67;19.40;;;19.20;51.60;;;;;;5075835;28;20182;-71
2021/04/29 10:51:10;;;;;;;24.60;19.73;;;19.00;51.60;;;;;;5078361;28;20845;-70
2021/04/29 10:53:39;;;;;;;20.03;18.03;;;18.90;51.40;;;;;;5076618;28;20456;-70
2021/04/29 10:58:42;;;;;;;19.00;17.20;;;18.70;51.10;;;;;;5095162;27;20543;-71
2021/04/29 11:01:13;;;;;;;19.93;17.93;;;18.60;51.90;;;;;;5093675;28;20420;-70
2021/04/29 11:08:55;;;;;;;20.30;18.20;;;18.30;51.90;;;;;;5117830;27;20579;-70
2021/04/29 11:11:30;;;;;;;18.23;16.33;;;18.20;51.50;;;;;;5109173;28;20399;-70
2021/04/29 11:14:07;;;;;;;18.10;16.27;;;18.20;51.80;;;;;;5101510;28;20549;-71
2021/04/29 11:19:59;;;;;;;22.73;15.90;;;18.10;52.00;;;;;;5118594;27;20518;-70
2021/04/29 11:22:30;;;;;;;17.30;15.60;;;18.10;51.80;;;;;;5099608;28;20405;-70
2021/04/29 11:24:56;;;;;;;17.13;14.77;;;18.20;51.90;;;;;;5095872;28;20405;-70
2021/04/29 11:27:33;;;;;;;20.30;18.30;;;18.00;52.00;;;;;;5099024;28;20423;-70
2021/04/29 11:30:03;;;;;;;19.03;15.63;;;17.90;52.70;;;;;;5092694;28;20415;-70
2021/04/29 11:32:32;;;;;;;14.67;13.13;;;17.60;55.20;;;;;;5100926;28;20503;-70
2021/04/29 11:34:59;;;;;;;22.90;15.60;;;17.30;59.70;;;;;;5088197;28;20418;-69
2021/04/29 11:37:25;;;;;;;15.17;13.27;;;16.90;71.50;;;;;;5090867;28;20613;-70
2021/04/29 11:40:08;;;;;;;13.50;11.90;;;16.40;72.50;;;;;;5094828;28;20505;-69
2021/04/29 11:42:34;;;;;;;14.80;13.27;;;16.00;77.50;;;;;;5090690;28;20902;-70
2021/04/29 11:45:18;;;;;;;13.87;12.40;;;15.80;80.10;;;;;;5090803;28;20451;-69
2021/04/29 11:53:14;;;;;;;13.87;11.33;;;15.60;91.20;;;;;;5066537;27;20520;-70
2021/04/29 11:55:42;;;;;;;12.20;10.33;;;15.40;91.70;;;;;;5052632;28;20419;-70
2021/04/29 11:58:11;;;;;;;11.73;10.53;;;15.30;92.70;;;;;;5053093;28;20506;-70
2021/04/29 12:00:41;;;;;;;11.20;10.10;;;15.30;94.30;;;;;;5030592;28;20411;-70
2021/04/29 12:03:09;;;;;;;11.60;10.27;;;15.40;94.50;;;;;;5034692;28;20433;-70
2021/04/29 12:05:37;;;;;;;12.67;11.40;;;15.30;95.10;;;;;;5039697;28;20465;-70
2021/04/29 12:08:09;;;;;;;10.30;9.30;;;15.30;97.40;;;;;;5033959;28;20415;-70
2021/04/29 12:16:09;;;;;;;11.83;10.77;;;15.00;97.00;;;;;;5123298;27;20509;-71
2021/04/29 12:18:41;;;;;;;11.70;10.60;;;14.90;96.20;;;;;;5099356;28;20459;-69
2021/04/29 12:21:07;;;;;;;11.50;10.30;;;14.80;95.80;;;;;;5105247;28;20421;-69
2021/04/29 12:23:33;;;;;;;15.13;12.13;;;14.80;95.30;;;;;;5101368;28;20424;-69
2021/04/29 12:26:01;;;;;;;10.63;9.63;;;14.80;94.40;;;;;;5105148;28;20194;-69
2021/04/29 12:28:35;;;;;;;12.57;10.83;;;14.70;94.60;;;;;;5102150;28;20265;-69
2021/04/29 12:31:20;;;;;;;10.53;9.63;;;14.70;92.80;;;;;;5099626;28;20427;-69
2021/04/29 12:34:21;;;;;;;8.87;8.03;;;14.70;91.30;;;;;;5100255;28;20490;-69
2021/04/29 12:36:58;;;;;;;8.83;8.03;;;14.80;89.00;;;;;;5099006;28;20424;-69
2021/04/29 12:39:26;;;;;;;10.80;8.70;;;14.90;85.80;;;;;;5103018;28;20459;-69
2021/04/29 12:41:53;;;;;;;8.97;8.03;;;15.10;84.80;;;;;;5100642;28;20428;-69
2021/04/29 12:44:19;;;;;;;10.77;8.67;;;15.10;82.40;;;;;;5099440;28;20428;-69
2021/04/29 12:46:46;;;;;;;9.80;8.80;;;15.30;82.70;;;;;;5098177;28;20832;-69
2021/04/29 12:49:14;;;;;;;9.50;8.50;;;15.50;81.40;;;;;;5101024;28;20543;-69
2021/04/29 12:51:40;;;;;;;9.27;8.37;;;15.40;80.80;;;;;;5097778;28;20921;-69
2021/04/29 12:54:17;;;;;;;9.03;8.10;;;15.40;80.80;;;;;;5101998;28;20795;-69
2021/04/29 12:56:46;;;;;;;16.30;9.50;;;15.30;82.30;;;;;;5092976;28;20420;-69
2021/04/29 12:59:15;;;;;;;11.73;8.93;;;15.30;83.80;;;;;;5102949;28;20459;-69
2021/04/29 13:01:43;;;;;;;12.60;8.87;;;15.10;82.80;;;;;;5105710;28;20428;-69
2021/04/29 13:04:25;;;;;;;9.53;8.70;;;15.00;80.70;;;;;;5096692;28;20433;-69
2021/04/29 13:06:53;;;;;;;10.77;9.77;;;14.80;80.00;;;;;;5104624;28;20885;-68